Dades meteomassalio
Diari Summary for Marc 2, 2018 Units:  Both    English   Metric
« Previous Day
Next Day »
Diari Semanal Mensual Anual Personalitzat
  Maxima: Minima: Mijana:
Temperatura: TemperatureC °F /  -17.8 °C 1.1 °F /  -17.2 °C 8.7 °F /  -12.9 °C
Rosada: DewpointC °F /  -17.8 °C -2.1 °F /  -18.9 °C 2.6 °F /  -16.3 °C
Humitat: Humidity % 52 % 66 %
Velocitat del vent: WindSpeedKMH mph /  0 km/h - 10.9 mph /  17.5 km/h
Racha vent: WindSpeedGustKMH mph /  0 km/h - -
Vent:- - SW
Pressio: PressurehPa in /  0 hPa 994.5 in /  33673.8 hPa -
Pluja: 1.3 in /  33.02 mm    
Historical Graphs
 
 
Tabular Data for Marc 2, 2018
Time Temperature Dew Point Pressure Wind Wind Speed Wind Gust Humidity Rainfall Rate (Hourly) solar Conditions
TemperatureC °F /  -17.8 °C DewpointC °F /  -17.8 °C PressurehPa in /  0 hPa Calm     Humidity % HourlyPrecipMM in /  0 mm SolarRadiationWatts/m^2 W/m2 Conditions
00:03 11.4 °F /  -11.4 °C 3.4 °F /  -15.9 °C 994.5 in /  33673.8 hPa NW 24.1 mph /  38.8 km/h 24.1 mph /  38.8 km/h 58 % 0.0 in /  0 mm 0.0 W/m2 CLR
00:08 11.3 °F /  -11.5 °C 3.1 °F /  -16.1 °C 994.5 in /  33673.8 hPa WNW 42.6 mph /  68.6 km/h 42.6 mph /  68.6 km/h 57 % 0.0 in /  0 mm 0.0 W/m2 CLR
00:13 11.3 °F /  -11.5 °C 3.1 °F /  -16.1 °C 994.8 in /  33683.9 hPa NW 33.8 mph /  54.4 km/h 33.8 mph /  54.4 km/h 57 % 0.0 in /  0 mm 0.0 W/m2 CLR
00:18 11.5 °F /  -11.4 °C 3.0 °F /  -16.1 °C 994.8 in /  33683.9 hPa NW 44.4 mph /  71.5 km/h 44.4 mph /  71.5 km/h 56 % 0.0 in /  0 mm 0.0 W/m2 CLR
00:23 11.4 °F /  -11.4 °C 2.9 °F /  -16.2 °C 995.1 in /  33694.1 hPa WNW 32.2 mph /  51.8 km/h 32.2 mph /  51.8 km/h 56 % 0.0 in /  0 mm 0.0 W/m2 CLR
00:28 11.4 °F /  -11.4 °C 2.9 °F /  -16.2 °C 995.1 in /  33694.1 hPa NW 38.6 mph /  62.1 km/h 38.6 mph /  62.1 km/h 56 % 0.0 in /  0 mm 0.0 W/m2 CLR
00:33 11.3 °F /  -11.5 °C 2.9 °F /  -16.2 °C 995.1 in /  33694.1 hPa NW 35.2 mph /  56.6 km/h 35.2 mph /  56.6 km/h 56 % 0.0 in /  0 mm 0.0 W/m2 CLR
00:38 11.2 °F /  -11.6 °C 2.9 °F /  -16.2 °C 995.5 in /  33707.6 hPa NNW 35.2 mph /  56.6 km/h 35.2 mph /  56.6 km/h 57 % 0.0 in /  0 mm 0.0 W/m2 CLR
00:43 11.1 °F /  -11.6 °C 2.7 °F /  -16.3 °C 995.5 in /  33707.6 hPa NW 31.5 mph /  50.7 km/h 31.5 mph /  50.7 km/h 56 % 0.0 in /  0 mm 0.0 W/m2 CLR
00:48 11.1 °F /  -11.6 °C 2.6 °F /  -16.3 °C 995.5 in /  33707.6 hPa NW 38.9 mph /  62.6 km/h 38.9 mph /  62.6 km/h 56 % 0.0 in /  0 mm 0.0 W/m2 CLR
00:53 11.1 °F /  -11.6 °C 2.3 °F /  -16.5 °C 995.8 in /  33717.8 hPa NW 40.7 mph /  65.5 km/h 40.7 mph /  65.5 km/h 55 % 0.0 in /  0 mm 0.0 W/m2 CLR
00:59 10.8 °F /  -11.8 °C 2.2 °F /  -16.6 °C 996.2 in /  33731.3 hPa NW 27.8 mph /  44.7 km/h 27.8 mph /  44.7 km/h 55 % 0.0 in /  0 mm 0.0 W/m2 CLR
01:03 10.8 °F /  -11.8 °C 2.3 °F /  -16.5 °C 996.2 in /  33731.3 hPa NW 37.0 mph /  59.5 km/h 37.0 mph /  59.5 km/h 56 % 0.0 in /  0 mm 0.0 W/m2 CLR
01:09 10.8 °F /  -11.8 °C 2.1 °F /  -16.6 °C 996.2 in /  33731.3 hPa NW 31.5 mph /  50.7 km/h 31.5 mph /  50.7 km/h 55 % 0.0 in /  0 mm 0.0 W/m2 CLR
01:14 10.7 °F /  -11.8 °C 2.1 °F /  -16.6 °C 996.2 in /  33731.3 hPa WNW 42.6 mph /  68.6 km/h 42.6 mph /  68.6 km/h 55 % 0.0 in /  0 mm 0.0 W/m2 CLR
01:19 10.7 °F /  -11.8 °C 2.1 °F /  -16.6 °C 996.5 in /  33741.5 hPa NW 40.7 mph /  65.5 km/h 40.7 mph /  65.5 km/h 55 % 0.0 in /  0 mm 0.0 W/m2 CLR
01:24 10.7 °F /  -11.8 °C 2.1 °F /  -16.6 °C 996.5 in /  33741.5 hPa NW 37.0 mph /  59.5 km/h 37.0 mph /  59.5 km/h 55 % 0.0 in /  0 mm 0.0 W/m2 CLR
01:29 10.6 °F /  -11.9 °C 2.1 °F /  -16.6 °C 996.8 in /  33751.6 hPa NNW 33.8 mph /  54.4 km/h 33.8 mph /  54.4 km/h 56 % 0.0 in /  0 mm 0.0 W/m2 CLR
01:34 10.4 °F /  -12 °C 2.2 °F /  -16.6 °C 997.2 in /  33765.2 hPa NNW 31.5 mph /  50.7 km/h 31.5 mph /  50.7 km/h 57 % 0.0 in /  0 mm 0.0 W/m2 CLR
01:39 10.3 °F /  -12.1 °C 2.1 °F /  -16.6 °C 997.2 in /  33765.2 hPa NNW 46.3 mph /  74.5 km/h 46.3 mph /  74.5 km/h 57 % 0.0 in /  0 mm 0.0 W/m2 CLR
01:44 10.3 °F /  -12.1 °C 2.1 °F /  -16.6 °C 997.2 in /  33765.2 hPa NNW 41.8 mph /  67.3 km/h 41.8 mph /  67.3 km/h 57 % 0.0 in /  0 mm 0.0 W/m2 CLR
01:49 10.3 °F /  -12.1 °C 1.9 °F /  -16.7 °C 997.2 in /  33765.2 hPa NW 38.9 mph /  62.6 km/h 38.9 mph /  62.6 km/h 56 % 0.0 in /  0 mm 0.0 W/m2 CLR
01:54 10.2 °F /  -12.1 °C 2.3 °F /  -16.5 °C 997.2 in /  33765.2 hPa NNW 29.6 mph /  47.6 km/h 29.6 mph /  47.6 km/h 58 % 0.0 in /  0 mm 0.0 W/m2 CLR
01:59 10.1 °F /  -12.2 °C 2.2 °F /  -16.6 °C 997.5 in /  33775.4 hPa NNW 27.8 mph /  44.7 km/h 27.8 mph /  44.7 km/h 58 % 0.0 in /  0 mm 0.0 W/m2 CLR
02:04 10.0 °F /  -12.2 °C 2.1 °F /  -16.6 °C 997.5 in /  33775.4 hPa NNW 32.2 mph /  51.8 km/h 32.2 mph /  51.8 km/h 58 % 0.0 in /  0 mm 0.0 W/m2 CLR
02:09 9.9 °F /  -12.3 °C 2.1 °F /  -16.6 °C 997.5 in /  33775.4 hPa NW 24.1 mph /  38.8 km/h 24.1 mph /  38.8 km/h 58 % 0.0 in /  0 mm 0.0 W/m2 CLR
02:14 9.8 °F /  -12.3 °C 2.2 °F /  -16.6 °C 997.5 in /  33775.4 hPa North 31.5 mph /  50.7 km/h 31.5 mph /  50.7 km/h 59 % 0.0 in /  0 mm 0.0 W/m2 CLR
02:19 9.8 °F /  -12.3 °C 1.9 °F /  -16.7 °C 997.5 in /  33775.4 hPa North 35.4 mph /  57 km/h 35.4 mph /  57 km/h 58 % 0.0 in /  0 mm 0.0 W/m2 CLR
02:24 9.7 °F /  -12.4 °C 2.1 °F /  -16.6 °C 997.5 in /  33775.4 hPa NW 31.5 mph /  50.7 km/h 31.5 mph /  50.7 km/h 59 % 0.0 in /  0 mm 0.0 W/m2 CLR
02:29 9.7 °F /  -12.4 °C 2.1 °F /  -16.6 °C 997.9 in /  33788.9 hPa NW 37.0 mph /  59.5 km/h 37.0 mph /  59.5 km/h 59 % 0.0 in /  0 mm 0.0 W/m2 CLR
02:34 9.5 °F /  -12.5 °C 1.9 °F /  -16.7 °C 997.9 in /  33788.9 hPa NNW 29.6 mph /  47.6 km/h 29.6 mph /  47.6 km/h 59 % 0.0 in /  0 mm 0.0 W/m2 CLR
02:39 9.5 °F /  -12.5 °C 1.9 °F /  -16.7 °C 998.2 in /  33799.1 hPa NNW 24.1 mph /  38.8 km/h 24.1 mph /  38.8 km/h 59 % 0.0 in /  0 mm 0.0 W/m2 CLR
02:44 9.3 °F /  -12.6 °C 1.9 °F /  -16.7 °C 998.2 in /  33799.1 hPa NNW 33.3 mph /  53.6 km/h 33.3 mph /  53.6 km/h 60 % 0.0 in /  0 mm 0.0 W/m2 CLR
02:49 9.4 °F /  -12.6 °C 2.0 °F /  -16.7 °C 998.5 in /  33809.2 hPa NNW 25.9 mph /  41.7 km/h 25.9 mph /  41.7 km/h 60 % 0.0 in /  0 mm 0.0 W/m2 CLR
02:54 9.3 °F /  -12.6 °C 1.9 °F /  -16.7 °C 998.5 in /  33809.2 hPa WNW 22.2 mph /  35.7 km/h 22.2 mph /  35.7 km/h 60 % 0.0 in /  0 mm 0.0 W/m2 CLR
02:59 9.4 °F /  -12.6 °C 2.0 °F /  -16.7 °C 998.5 in /  33809.2 hPa NW 29.6 mph /  47.6 km/h 29.6 mph /  47.6 km/h 60 % 0.0 in /  0 mm 0.0 W/m2 CLR
03:04 9.3 °F /  -12.6 °C 1.9 °F /  -16.7 °C 998.5 in /  33809.2 hPa NW 31.5 mph /  50.7 km/h 31.5 mph /  50.7 km/h 60 % 0.0 in /  0 mm 0.0 W/m2 CLR
03:09 9.2 °F /  -12.7 °C 1.8 °F /  -16.8 °C 998.5 in /  33809.2 hPa NW 33.3 mph /  53.6 km/h 33.3 mph /  53.6 km/h 60 % 0.0 in /  0 mm 0.0 W/m2 CLR
03:14 9.2 °F /  -12.7 °C 1.8 °F /  -16.8 °C 998.5 in /  33809.2 hPa NW 27.8 mph /  44.7 km/h 27.8 mph /  44.7 km/h 60 % 0.0 in /  0 mm 0.0 W/m2 CLR
03:19 9.1 °F /  -12.7 °C 2.0 °F /  -16.7 °C 998.5 in /  33809.2 hPa NW 24.1 mph /  38.8 km/h 24.1 mph /  38.8 km/h 61 % 0.0 in /  0 mm 0.0 W/m2 CLR
03:24 9.1 °F /  -12.7 °C 1.9 °F /  -16.7 °C 998.9 in /  33822.8 hPa NW 25.9 mph /  41.7 km/h 25.9 mph /  41.7 km/h 61 % 0.0 in /  0 mm 0.0 W/m2 CLR
03:29 9.0 °F /  -12.8 °C 2.1 °F /  -16.6 °C 998.9 in /  33822.8 hPa NW 29.0 mph /  46.7 km/h 29.0 mph /  46.7 km/h 62 % 0.0 in /  0 mm 0.0 W/m2 CLR
03:34 8.9 °F /  -12.8 °C 2.0 °F /  -16.7 °C 998.9 in /  33822.8 hPa NW 25.9 mph /  41.7 km/h 25.9 mph /  41.7 km/h 62 % 0.0 in /  0 mm 0.0 W/m2 CLR
03:39 8.7 °F /  -12.9 °C 2.1 °F /  -16.6 °C 998.9 in /  33822.8 hPa NW 22.5 mph /  36.2 km/h 22.5 mph /  36.2 km/h 63 % 0.0 in /  0 mm 0.0 W/m2 CLR
03:44 8.6 °F /  -13 °C 2.2 °F /  -16.6 °C 998.9 in /  33822.8 hPa NW 25.9 mph /  41.7 km/h 25.9 mph /  41.7 km/h 64 % 0.0 in /  0 mm 0.0 W/m2 CLR
03:49 8.4 °F /  -13.1 °C 2.0 °F /  -16.7 °C 998.9 in /  33822.8 hPa NW 16.7 mph /  26.9 km/h 16.7 mph /  26.9 km/h 64 % 0.0 in /  0 mm 0.0 W/m2 CLR
03:54 8.3 °F /  -13.2 °C 2.1 °F /  -16.6 °C 998.9 in /  33822.8 hPa NW 22.2 mph /  35.7 km/h 22.2 mph /  35.7 km/h 65 % 0.0 in /  0 mm 0.0 W/m2 CLR
03:59 8.2 °F /  -13.2 °C 2.0 °F /  -16.7 °C 998.9 in /  33822.8 hPa NNW 18.5 mph /  29.8 km/h 18.5 mph /  29.8 km/h 65 % 0.0 in /  0 mm 0.0 W/m2 CLR
04:04 8.2 °F /  -13.2 °C 2.0 °F /  -16.7 °C 998.9 in /  33822.8 hPa NNW 20.4 mph /  32.8 km/h 20.4 mph /  32.8 km/h 65 % 0.0 in /  0 mm 0.0 W/m2 CLR
04:09 8.1 °F /  -13.3 °C 1.9 °F /  -16.7 °C 998.9 in /  33822.8 hPa NW 18.5 mph /  29.8 km/h 18.5 mph /  29.8 km/h 65 % 0.0 in /  0 mm 0.0 W/m2 CLR
04:14 8.2 °F /  -13.2 °C 1.8 °F /  -16.8 °C 999.2 in /  33832.9 hPa NW 20.4 mph /  32.8 km/h 20.4 mph /  32.8 km/h 64 % 0.0 in /  0 mm 0.0 W/m2 CLR
04:19 8.1 °F /  -13.3 °C 1.7 °F /  -16.8 °C 999.2 in /  33832.9 hPa NNW 14.8 mph /  23.8 km/h 14.8 mph /  23.8 km/h 64 % 0.0 in /  0 mm 0.0 W/m2 CLR
04:24 8.1 °F /  -13.3 °C 1.7 °F /  -16.8 °C 999.5 in /  33843.1 hPa North 9.3 mph /  15 km/h 9.3 mph /  15 km/h 64 % 0.0 in /  0 mm 0.0 W/m2 CLR
04:29 8.0 °F /  -13.3 °C 1.6 °F /  -16.9 °C 999.5 in /  33843.1 hPa NW 11.1 mph /  17.9 km/h 11.1 mph /  17.9 km/h 64 % 0.0 in /  0 mm 0.0 W/m2 CLR
04:34 8.0 °F /  -13.3 °C 1.4 °F /  -17 °C 999.5 in /  33843.1 hPa NNW 11.1 mph /  17.9 km/h 11.1 mph /  17.9 km/h 63 % 0.0 in /  0 mm 0.0 W/m2 CLR
04:39 7.9 °F /  -13.4 °C 1.3 °F /  -17.1 °C 999.9 in /  33856.6 hPa NW 13.0 mph /  20.9 km/h 13.0 mph /  20.9 km/h 63 % 0.0 in /  0 mm 0.0 W/m2 CLR
04:44 7.8 °F /  -13.4 °C 1.2 °F /  -17.1 °C 999.9 in /  33856.6 hPa NNW 9.3 mph /  15 km/h 9.3 mph /  15 km/h 63 % 0.0 in /  0 mm 0.0 W/m2 CLR
04:49 7.7 °F /  -13.5 °C 1.1 °F /  -17.2 °C 1000.2 in /  33866.8 hPa Calm     63 % 0.0 in /  0 mm 0.0 W/m2 CLR
04:54 7.7 °F /  -13.5 °C 1.1 °F /  -17.2 °C 1000.2 in /  33866.8 hPa Calm     63 % 0.0 in /  0 mm 0.0 W/m2 CLR
04:59 7.6 °F /  -13.6 °C 1.0 °F /  -17.2 °C 1000.2 in /  33866.8 hPa Calm     63 % 0.0 in /  0 mm 0.0 W/m2 CLR
05:04 7.5 °F /  -13.6 °C 1.1 °F /  -17.2 °C 1000.6 in /  33880.3 hPa Calm     64 % 0.0 in /  0 mm 0.0 W/m2 CLR
05:09 7.3 °F /  -13.7 °C 1.2 °F /  -17.1 °C 1000.2 in /  33866.8 hPa Calm     65 % 0.0 in /  0 mm 0.0 W/m2 CLR
05:14 7.1 °F /  -13.8 °C 0.9 °F /  -17.3 °C 1000.2 in /  33866.8 hPa Calm     65 % 0.0 in /  0 mm 0.0 W/m2 CLR
05:19 6.8 °F /  -14 °C 0.9 °F /  -17.3 °C 1000.6 in /  33880.3 hPa Calm     66 % 0.0 in /  0 mm 0.0 W/m2 CLR
05:24 6.5 °F /  -14.2 °C 1.0 °F /  -17.2 °C 1000.6 in /  33880.3 hPa Calm     68 % 0.0 in /  0 mm 0.0 W/m2 CLR
05:29 6.3 °F /  -14.3 °C 1.0 °F /  -17.2 °C 1000.6 in /  33880.3 hPa Calm     69 % 0.0 in /  0 mm 0.0 W/m2 CLR
05:34 6.1 °F /  -14.4 °C 1.0 °F /  -17.2 °C 1000.6 in /  33880.3 hPa North 12.9 mph /  20.8 km/h 12.9 mph /  20.8 km/h 70 % 0.0 in /  0 mm 0.0 W/m2 CLR
05:39 6.2 °F /  -14.3 °C 0.9 °F /  -17.3 °C 1000.9 in /  33890.5 hPa NNW 7.4 mph /  11.9 km/h 7.4 mph /  11.9 km/h 69 % 0.0 in /  0 mm 0.0 W/m2 CLR
05:44 6.1 °F /  -14.4 °C 0.8 °F /  -17.3 °C 1000.9 in /  33890.5 hPa North 9.3 mph /  15 km/h 9.3 mph /  15 km/h 69 % 0.0 in /  0 mm 0.0 W/m2 CLR
05:49 6.1 °F /  -14.4 °C 0.8 °F /  -17.3 °C 1001.2 in /  33900.6 hPa NNE 11.3 mph /  18.2 km/h 11.3 mph /  18.2 km/h 69 % 0.0 in /  0 mm 0.0 W/m2 CLR
05:54 6.2 °F /  -14.3 °C 0.9 °F /  -17.3 °C 1001.2 in /  33900.6 hPa NNE 13.0 mph /  20.9 km/h 13.0 mph /  20.9 km/h 69 % 0.0 in /  0 mm 0.0 W/m2 CLR
05:59 6.2 °F /  -14.3 °C 0.9 °F /  -17.3 °C 1001.2 in /  33900.6 hPa Calm     69 % 0.0 in /  0 mm 0.0 W/m2 CLR
06:04 6.2 °F /  -14.3 °C 0.9 °F /  -17.3 °C 1001.2 in /  33900.6 hPa North 5.6 mph /  9 km/h   69 % 0.0 in /  0 mm 0.0 W/m2 CLR
06:09 6.2 °F /  -14.3 °C 0.9 °F /  -17.3 °C 1001.6 in /  33914.2 hPa North 7.4 mph /  11.9 km/h 7.4 mph /  11.9 km/h 69 % 0.0 in /  0 mm 0.0 W/m2 CLR
06:14 6.2 °F /  -14.3 °C 0.7 °F /  -17.4 °C 1001.6 in /  33914.2 hPa Calm     68 % 0.0 in /  0 mm 0.0 W/m2 CLR
06:19 6.1 °F /  -14.4 °C 0.8 °F /  -17.3 °C 1001.6 in /  33914.2 hPa Calm     69 % 0.0 in /  0 mm 0.0 W/m2 CLR
06:24 5.8 °F /  -14.6 °C 0.6 °F /  -17.4 °C 1001.6 in /  33914.2 hPa Calm     69 % 0.0 in /  0 mm 0.0 W/m2 CLR
06:29 5.6 °F /  -14.7 °C 0.5 °F /  -17.5 °C 1001.6 in /  33914.2 hPa Calm     70 % 0.0 in /  0 mm 0.0 W/m2 CLR
06:34 5.1 °F /  -14.9 °C 0.5 °F /  -17.5 °C 1001.9 in /  33924.3 hPa Calm     72 % 0.0 in /  0 mm 0.0 W/m2 CLR
06:39 4.9 °F /  -15.1 °C 0.5 °F /  -17.5 °C 1001.9 in /  33924.3 hPa Calm     73 % 0.0 in /  0 mm 0.0 W/m2 CLR
06:44 4.3 °F /  -15.4 °C 0.1 °F /  -17.7 °C 1001.9 in /  33924.3 hPa Calm     74 % 0.0 in /  0 mm 0.0 W/m2 CLR
06:49 4.1 °F /  -15.5 °C 0.4 °F /  -17.6 °C 1001.9 in /  33924.3 hPa Calm     77 % 0.0 in /  0 mm 0.0 W/m2 CLR
06:54 4.5 °F /  -15.3 °C 0.4 °F /  -17.6 °C 1002.3 in /  33937.9 hPa Calm     75 % 0.0 in /  0 mm 0.0 W/m2 CLR
06:59 4.1 °F /  -15.5 °C 0.2 °F /  -17.7 °C 1002.3 in /  33937.9 hPa WNW 8.0 mph /  12.9 km/h 8.0 mph /  12.9 km/h 76 % 0.0 in /  0 mm 0.0 W/m2 CLR
07:04 3.8 °F /  -15.7 °C 0.1 °F /  -17.7 °C 1002.6 in /  33948 hPa Calm     77 % 0.0 in /  0 mm 0.0 W/m2 CLR
07:09 3.7 °F /  -15.7 °C 0.2 °F /  -17.7 °C 1002.6 in /  33948 hPa Calm     78 % 0.0 in /  0 mm 0.0 W/m2 CLR
07:14 3.7 °F /  -15.7 °C 0.2 °F /  -17.7 °C 1002.9 in /  33958.2 hPa Calm     78 % 0.0 in /  0 mm 0.0 W/m2 CLR
07:19 3.4 °F /  -15.9 °C -0.1 °F /  -17.8 °C 1002.9 in /  33958.2 hPa Calm     78 % 0.0 in /  0 mm 0.0 W/m2 CLR
07:24 3.1 °F /  -16.1 °C -0.2 °F /  -17.9 °C 1002.9 in /  33958.2 hPa Calm     79 % 0.0 in /  0 mm 0.0 W/m2 OVC
07:29 3.1 °F /  -16.1 °C -0.1 °F /  -17.8 °C 1002.9 in /  33958.2 hPa Calm     80 % 0.0 in /  0 mm 5.0 W/m2 OVC
07:34 2.9 °F /  -16.2 °C -0.2 °F /  -17.9 °C 1002.9 in /  33958.2 hPa WNW 7.4 mph /  11.9 km/h 7.4 mph /  11.9 km/h 80 % 0.0 in /  0 mm 7.0 W/m2 OVC
07:39 2.7 °F /  -16.3 °C -0.2 °F /  -17.9 °C 1002.9 in /  33958.2 hPa WNW 11.1 mph /  17.9 km/h 11.1 mph /  17.9 km/h 81 % 0.0 in /  0 mm 9.0 W/m2 BKN
07:44 1.1 °F /  -17.2 °C -1.6 °F /  -18.7 °C 1002.9 in /  33958.2 hPa Calm     82 % 0.0 in /  0 mm 11.0 W/m2 BKN
07:49 1.1 °F /  -17.2 °C -1.8 °F /  -18.8 °C 1003.3 in /  33971.7 hPa Calm     81 % 0.0 in /  0 mm 12.0 W/m2 BKN
07:54 1.1 °F /  -17.2 °C -1.8 °F /  -18.8 °C 1003.6 in /  33981.9 hPa Calm     81 % 0.0 in /  0 mm 16.0 W/m2 BKN
07:59 1.1 °F /  -17.2 °C -1.8 °F /  -18.8 °C 1003.6 in /  33981.9 hPa Calm     81 % 0.0 in /  0 mm 18.0 W/m2 BKN
08:05 1.1 °F /  -17.2 °C -1.8 °F /  -18.8 °C 1003.6 in /  33981.9 hPa Calm     81 % 0.0 in /  0 mm 25.0 W/m2 BKN
08:10 1.1 °F /  -17.2 °C -1.8 °F /  -18.8 °C 1003.6 in /  33981.9 hPa Calm     81 % 0.0 in /  0 mm 35.0 W/m2 BKN
08:15 1.1 °F /  -17.2 °C -1.6 °F /  -18.7 °C 1003.3 in /  33971.7 hPa Calm     82 % 0.0 in /  0 mm 44.0 W/m2 BKN
08:20 1.1 °F /  -17.2 °C -1.6 °F /  -18.7 °C 1003.3 in /  33971.7 hPa Calm     82 % 0.0 in /  0 mm 63.0 W/m2 SCT
08:25 1.7 °F /  -16.8 °C -1.2 °F /  -18.4 °C 1003.3 in /  33971.7 hPa Calm     81 % 0.0 in /  0 mm 76.0 W/m2 FEW
08:30 1.1 °F /  -17.2 °C -1.9 °F /  -18.8 °C 1003.3 in /  33971.7 hPa Calm     80 % 0.0 in /  0 mm 95.0 W/m2 CLR
08:35 1.1 °F /  -17.2 °C -2.1 °F /  -18.9 °C 1003.6 in /  33981.9 hPa Calm     79 % 0.0 in /  0 mm 116.0 W/m2 CLR
08:40 1.1 °F /  -17.2 °C -1.9 °F /  -18.8 °C 1003.6 in /  33981.9 hPa Calm     80 % 0.0 in /  0 mm 134.0 W/m2 CLR
08:45 1.7 °F /  -16.8 °C -1.4 °F /  -18.6 °C 1003.3 in /  33971.7 hPa Calm     80 % 0.0 in /  0 mm 153.0 W/m2 CLR
08:50 1.7 °F /  -16.8 °C -1.6 °F /  -18.7 °C 1003.3 in /  33971.7 hPa Calm     79 % 0.0 in /  0 mm 79.0 W/m2 CLR
08:55 2.2 °F /  -16.6 °C -1.1 °F /  -18.4 °C 1003.6 in /  33981.9 hPa Calm     79 % 0.0 in /  0 mm 190.0 W/m2 CLR
09:00 2.2 °F /  -16.6 °C -0.9 °F /  -18.3 °C 1003.9 in /  33992.1 hPa Calm     80 % 0.0 in /  0 mm 211.0 W/m2 CLR
09:05 2.8 °F /  -16.2 °C -0.7 °F /  -18.2 °C 1004.3 in /  34005.6 hPa Calm     78 % 0.0 in /  0 mm 227.0 W/m2 CLR
09:10 3.9 °F /  -15.6 °C -0.5 °F /  -18.1 °C 1004.3 in /  34005.6 hPa North 9.3 mph /  15 km/h 9.3 mph /  15 km/h 73 % 0.0 in /  0 mm 246.0 W/m2 CLR
09:15 3.9 °F /  -15.6 °C -1.5 °F /  -18.6 °C 1004.3 in /  34005.6 hPa North 14.5 mph /  23.3 km/h 14.5 mph /  23.3 km/h 68 % 0.0 in /  0 mm 267.0 W/m2 CLR
09:20 4.4 °F /  -15.3 °C -1.3 °F /  -18.5 °C 1004.6 in /  34015.8 hPa NW 18.5 mph /  29.8 km/h 18.5 mph /  29.8 km/h 66 % 0.0 in /  0 mm 253.0 W/m2 CLR
09:25 6.1 °F /  -14.4 °C -0.4 °F /  -18 °C 1004.6 in /  34015.8 hPa NNW 13.0 mph /  20.9 km/h 13.0 mph /  20.9 km/h 63 % 0.0 in /  0 mm 269.0 W/m2 CLR
09:30 6.7 °F /  -14.1 °C 0.1 °F /  -17.7 °C 1004.6 in /  34015.8 hPa WNW 16.1 mph /  25.9 km/h 16.1 mph /  25.9 km/h 63 % 0.0 in /  0 mm 60.0 W/m2 CLR
09:35 7.2 °F /  -13.8 °C 0.4 °F /  -17.6 °C 1004.6 in /  34015.8 hPa NNW 13.0 mph /  20.9 km/h 13.0 mph /  20.9 km/h 62 % 0.0 in /  0 mm 39.0 W/m2 FEW
09:40 6.7 °F /  -14.1 °C 0.3 °F /  -17.6 °C 1004.3 in /  34005.6 hPa North 5.6 mph /  9 km/h 5.6 mph /  9 km/h 64 % 0.0 in /  0 mm 345.0 W/m2 SCT
09:45 7.2 °F /  -13.8 °C 0.7 °F /  -17.4 °C 1004.3 in /  34005.6 hPa NNE 13.0 mph /  20.9 km/h 13.0 mph /  20.9 km/h 63 % 0.0 in /  0 mm 359.0 W/m2 FEW
09:50 7.8 °F /  -13.4 °C 1.4 °F /  -17 °C 1004.3 in /  34005.6 hPa Calm     64 % 0.0 in /  0 mm 373.0 W/m2 CLR
09:55 7.8 °F /  -13.4 °C 1.2 °F /  -17.1 °C 1004.3 in /  34005.6 hPa Calm     63 % 0.0 in /  0 mm 387.0 W/m2 CLR
10:00 8.3 °F /  -13.2 °C 1.2 °F /  -17.1 °C 1004.3 in /  34005.6 hPa NNW 9.3 mph /  15 km/h 9.3 mph /  15 km/h 61 % 0.0 in /  0 mm 404.0 W/m2 CLR
10:05 8.3 °F /  -13.2 °C 0.8 °F /  -17.3 °C 1003.9 in /  33992.1 hPa Calm     59 % 0.0 in /  0 mm 420.0 W/m2 CLR
10:10 8.3 °F /  -13.2 °C 1.0 °F /  -17.2 °C 1003.9 in /  33992.1 hPa ENE 13.0 mph /  20.9 km/h 13.0 mph /  20.9 km/h 60 % 0.0 in /  0 mm 436.0 W/m2 CLR
10:15 8.9 °F /  -12.8 °C 1.1 °F /  -17.2 °C 1003.9 in /  33992.1 hPa NE 7.4 mph /  11.9 km/h 7.4 mph /  11.9 km/h 58 % 0.0 in /  0 mm 450.0 W/m2 CLR
10:20 8.9 °F /  -12.8 °C 1.3 °F /  -17.1 °C 1003.9 in /  33992.1 hPa Calm     59 % 0.0 in /  0 mm 471.0 W/m2 CLR
10:25 8.9 °F /  -12.8 °C 0.6 °F /  -17.4 °C 1003.9 in /  33992.1 hPa ENE 14.8 mph /  23.8 km/h 14.8 mph /  23.8 km/h 56 % 0.0 in /  0 mm 480.0 W/m2 CLR
10:30 9.4 °F /  -12.6 °C 1.6 °F /  -16.9 °C 1003.9 in /  33992.1 hPa Calm     58 % 0.0 in /  0 mm 540.0 W/m2 CLR
10:35 9.4 °F /  -12.6 °C 1.1 °F /  -17.2 °C 1003.9 in /  33992.1 hPa Calm     56 % 0.0 in /  0 mm 417.0 W/m2 CLR
10:40 10.0 °F /  -12.2 °C 1.4 °F /  -17 °C 1004.3 in /  34005.6 hPa Calm     55 % 0.0 in /  0 mm 406.0 W/m2 CLR
10:45 10.0 °F /  -12.2 °C 1.6 °F /  -16.9 °C 1004.3 in /  34005.6 hPa Calm     56 % 0.0 in /  0 mm 309.0 W/m2 CLR
10:50 10.0 °F /  -12.2 °C 1.6 °F /  -16.9 °C 1004.3 in /  34005.6 hPa Calm     56 % 0.0 in /  0 mm 350.0 W/m2 CLR
10:55 10.0 °F /  -12.2 °C 1.6 °F /  -16.9 °C 1004.3 in /  34005.6 hPa Calm     56 % 0.0 in /  0 mm 399.0 W/m2 CLR
11:00 10.0 °F /  -12.2 °C 1.4 °F /  -17 °C 1004.3 in /  34005.6 hPa Calm     55 % 0.0 in /  0 mm 360.0 W/m2 CLR
11:05 10.0 °F /  -12.2 °C 1.1 °F /  -17.2 °C 1004.3 in /  34005.6 hPa Calm     54 % 0.0 in /  0 mm 345.0 W/m2 CLR
11:10 10.6 °F /  -11.9 °C 1.9 °F /  -16.7 °C 1004.3 in /  34005.6 hPa Calm     55 % 0.0 in /  0 mm 352.0 W/m2 CLR
11:15 10.6 °F /  -11.9 °C 1.6 °F /  -16.9 °C 1004.3 in /  34005.6 hPa Calm     54 % 0.0 in /  0 mm 288.0 W/m2 CLR
11:20 10.0 °F /  -12.2 °C 1.4 °F /  -17 °C 1003.9 in /  33992.1 hPa Calm     55 % 0.0 in /  0 mm 197.0 W/m2 CLR
11:25 10.0 °F /  -12.2 °C 1.4 °F /  -17 °C 1003.9 in /  33992.1 hPa Calm     55 % 0.0 in /  0 mm 139.0 W/m2 CLR
11:30 10.0 °F /  -12.2 °C 1.4 °F /  -17 °C 1003.9 in /  33992.1 hPa Calm     55 % 0.0 in /  0 mm 650.0 W/m2 CLR
11:35 11.1 °F /  -11.6 °C 2.4 °F /  -16.4 °C 1003.9 in /  33992.1 hPa SSE 5.6 mph /  9 km/h 5.6 mph /  9 km/h 55 % 0.0 in /  0 mm 645.0 W/m2 CLR
11:40 11.1 °F /  -11.6 °C 1.9 °F /  -16.7 °C 1003.9 in /  33992.1 hPa SE 1.9 mph /  3.1 km/h   53 % 0.0 in /  0 mm 596.0 W/m2 CLR
11:45 11.1 °F /  -11.6 °C 1.9 °F /  -16.7 °C 1004.3 in /  34005.6 hPa SE 16.7 mph /  26.9 km/h 16.7 mph /  26.9 km/h 53 % 0.0 in /  0 mm 446.0 W/m2 CLR
11:50 11.7 °F /  -11.3 °C 2.7 °F /  -16.3 °C 1004.3 in /  34005.6 hPa SSE 7.4 mph /  11.9 km/h 7.4 mph /  11.9 km/h 54 % 0.0 in /  0 mm 715.0 W/m2 CLR
11:55 11.7 °F /  -11.3 °C 2.4 °F /  -16.4 °C 1004.3 in /  34005.6 hPa ESE 1.9 mph /  3.1 km/h   53 % 0.0 in /  0 mm 622.0 W/m2 CLR
12:00 11.1 °F /  -11.6 °C 1.9 °F /  -16.7 °C 1003.9 in /  33992.1 hPa ESE 3.7 mph /  6 km/h 3.7 mph /  6 km/h 53 % 0.0 in /  0 mm 260.0 W/m2 CLR
12:05 11.1 °F /  -11.6 °C 1.9 °F /  -16.7 °C 1003.9 in /  33992.1 hPa East 14.5 mph /  23.3 km/h 14.5 mph /  23.3 km/h 53 % 0.0 in /  0 mm 668.0 W/m2 CLR
12:10 11.1 °F /  -11.6 °C 2.2 °F /  -16.6 °C 1003.9 in /  33992.1 hPa SE 5.6 mph /  9 km/h 5.6 mph /  9 km/h 54 % 0.0 in /  0 mm 230.0 W/m2 CLR
12:15 11.1 °F /  -11.6 °C 2.2 °F /  -16.6 °C 1003.9 in /  33992.1 hPa SE 5.6 mph /  9 km/h 5.6 mph /  9 km/h 54 % 0.0 in /  0 mm 192.0 W/m2 CLR
12:20 10.6 °F /  -11.9 °C 1.4 °F /  -17 °C 1003.9 in /  33992.1 hPa ESE 6.4 mph /  10.3 km/h 6.4 mph /  10.3 km/h 53 % 0.0 in /  0 mm 146.0 W/m2 CLR
12:25 10.6 °F /  -11.9 °C 1.6 °F /  -16.9 °C 1003.9 in /  33992.1 hPa SSE 14.8 mph /  23.8 km/h 14.8 mph /  23.8 km/h 54 % 0.0 in /  0 mm 160.0 W/m2 CLR
12:30 10.6 °F /  -11.9 °C 1.4 °F /  -17 °C 1003.9 in /  33992.1 hPa East 3.7 mph /  6 km/h 3.7 mph /  6 km/h 53 % 0.0 in /  0 mm 167.0 W/m2 CLR
12:35 10.6 °F /  -11.9 °C 1.6 °F /  -16.9 °C 1003.9 in /  33992.1 hPa ESE 1.9 mph /  3.1 km/h 1.9 mph /  3.1 km/h 54 % 0.0 in /  0 mm 155.0 W/m2 CLR
12:40 10.6 °F /  -11.9 °C 1.6 °F /  -16.9 °C 1003.9 in /  33992.1 hPa East 3.7 mph /  6 km/h 3.7 mph /  6 km/h 54 % 0.0 in /  0 mm 125.0 W/m2 CLR
12:45 10.6 °F /  -11.9 °C 1.6 °F /  -16.9 °C 1004.3 in /  34005.6 hPa SE 9.3 mph /  15 km/h 9.3 mph /  15 km/h 54 % 0.0 in /  0 mm 111.0 W/m2 CLR
12:50 10.6 °F /  -11.9 °C 1.9 °F /  -16.7 °C 1003.9 in /  33992.1 hPa SE 3.7 mph /  6 km/h 3.7 mph /  6 km/h 55 % 0.0 in /  0 mm 125.0 W/m2 CLR
12:55 10.6 °F /  -11.9 °C 1.9 °F /  -16.7 °C 1003.9 in /  33992.1 hPa SSE 5.6 mph /  9 km/h 5.6 mph /  9 km/h 55 % 0.0 in /  0 mm 155.0 W/m2 CLR
13:00 10.6 °F /  -11.9 °C 2.1 °F /  -16.6 °C 1003.9 in /  33992.1 hPa SSE 5.6 mph /  9 km/h 5.6 mph /  9 km/h 56 % 0.0 in /  0 mm 185.0 W/m2 CLR
13:06 11.1 °F /  -11.6 °C 2.9 °F /  -16.2 °C 1003.9 in /  33992.1 hPa SE 5.6 mph /  9 km/h 5.6 mph /  9 km/h 57 % 0.0 in /  0 mm 146.0 W/m2 CLR
13:11 11.1 °F /  -11.6 °C 2.7 °F /  -16.3 °C 1003.9 in /  33992.1 hPa ESE 20.4 mph /  32.8 km/h 20.4 mph /  32.8 km/h 56 % 0.0 in /  0 mm 169.0 W/m2 CLR
13:16 10.6 °F /  -11.9 °C 1.9 °F /  -16.7 °C 1003.9 in /  33992.1 hPa SE 16.7 mph /  26.9 km/h 16.7 mph /  26.9 km/h 55 % 0.0 in /  0 mm 155.0 W/m2 CLR
13:21 11.1 °F /  -11.6 °C 2.7 °F /  -16.3 °C 1003.6 in /  33981.9 hPa ESE 18.5 mph /  29.8 km/h 18.5 mph /  29.8 km/h 56 % 0.0 in /  0 mm 225.0 W/m2 CLR
13:26 11.1 °F /  -11.6 °C 2.7 °F /  -16.3 °C 1003.6 in /  33981.9 hPa SE 16.7 mph /  26.9 km/h 16.7 mph /  26.9 km/h 56 % 0.0 in /  0 mm 279.0 W/m2 CLR
13:31 11.1 °F /  -11.6 °C 2.7 °F /  -16.3 °C 1003.6 in /  33981.9 hPa SSE 13.0 mph /  20.9 km/h 13.0 mph /  20.9 km/h 56 % 0.0 in /  0 mm 318.0 W/m2 CLR
13:36 11.1 °F /  -11.6 °C 2.7 °F /  -16.3 °C 1003.3 in /  33971.7 hPa SE 14.5 mph /  23.3 km/h 14.5 mph /  23.3 km/h 56 % 0.0 in /  0 mm 195.0 W/m2 CLR
13:41 11.1 °F /  -11.6 °C 2.7 °F /  -16.3 °C 1002.9 in /  33958.2 hPa SE 14.8 mph /  23.8 km/h 14.8 mph /  23.8 km/h 56 % 0.0 in /  0 mm 178.0 W/m2 CLR
13:46 11.1 °F /  -11.6 °C 2.4 °F /  -16.4 °C 1002.9 in /  33958.2 hPa SE 20.4 mph /  32.8 km/h 20.4 mph /  32.8 km/h 55 % 0.0 in /  0 mm 197.0 W/m2 CLR
13:51 11.7 °F /  -11.3 °C 2.7 °F /  -16.3 °C 1002.9 in /  33958.2 hPa SSE 18.5 mph /  29.8 km/h 18.5 mph /  29.8 km/h 54 % 0.0 in /  0 mm 236.0 W/m2 CLR
13:56 11.7 °F /  -11.3 °C 2.9 °F /  -16.2 °C 1002.9 in /  33958.2 hPa SE 14.8 mph /  23.8 km/h 14.8 mph /  23.8 km/h 55 % 0.0 in /  0 mm 229.0 W/m2 CLR
14:01 11.7 °F /  -11.3 °C 2.9 °F /  -16.2 °C 1002.9 in /  33958.2 hPa South 12.9 mph /  20.8 km/h 12.9 mph /  20.8 km/h 55 % 0.0 in /  0 mm 241.0 W/m2 CLR
14:06 11.7 °F /  -11.3 °C 2.7 °F /  -16.3 °C 1002.9 in /  33958.2 hPa SSE 18.5 mph /  29.8 km/h 18.5 mph /  29.8 km/h 54 % 0.0 in /  0 mm 297.0 W/m2 CLR
14:11 12.2 °F /  -11 °C 2.9 °F /  -16.2 °C 1002.9 in /  33958.2 hPa SSW 20.4 mph /  32.8 km/h 20.4 mph /  32.8 km/h 53 % 0.0 in /  0 mm 214.0 W/m2 CLR
14:16 12.2 °F /  -11 °C 3.2 °F /  -16 °C 1002.9 in /  33958.2 hPa SSW 20.4 mph /  32.8 km/h 20.4 mph /  32.8 km/h 54 % 0.0 in /  0 mm 294.0 W/m2 CLR
14:21 12.2 °F /  -11 °C 2.7 °F /  -16.3 °C 1002.6 in /  33948 hPa South 27.8 mph /  44.7 km/h 27.8 mph /  44.7 km/h 52 % 0.0 in /  0 mm 323.0 W/m2 CLR
14:26 12.8 °F /  -10.7 °C 3.2 °F /  -16 °C 1002.6 in /  33948 hPa SSE 25.9 mph /  41.7 km/h 25.9 mph /  41.7 km/h 52 % 0.0 in /  0 mm 302.0 W/m2 CLR
14:31 12.2 °F /  -11 °C 2.9 °F /  -16.2 °C 1002.6 in /  33948 hPa SSE 20.4 mph /  32.8 km/h 20.4 mph /  32.8 km/h 53 % 0.0 in /  0 mm 262.0 W/m2 CLR
14:36 12.2 °F /  -11 °C 3.2 °F /  -16 °C 1002.6 in /  33948 hPa SSE 20.4 mph /  32.8 km/h 20.4 mph /  32.8 km/h 54 % 0.0 in /  0 mm 260.0 W/m2 CLR
14:41 12.8 °F /  -10.7 °C 3.4 °F /  -15.9 °C 1002.3 in /  33937.9 hPa South 25.9 mph /  41.7 km/h 25.9 mph /  41.7 km/h 53 % 0.0 in /  0 mm 413.0 W/m2 CLR
14:46 12.8 °F /  -10.7 °C 3.7 °F /  -15.7 °C 1001.9 in /  33924.3 hPa SE 9.3 mph /  15 km/h 9.3 mph /  15 km/h 54 % 0.0 in /  0 mm 330.0 W/m2 CLR
14:51 12.8 °F /  -10.7 °C 3.4 °F /  -15.9 °C 1002.3 in /  33937.9 hPa South 19.3 mph /  31.1 km/h 19.3 mph /  31.1 km/h 53 % 0.0 in /  0 mm 281.0 W/m2 CLR
14:56 12.8 °F /  -10.7 °C 3.4 °F /  -15.9 °C 1002.3 in /  33937.9 hPa South 29.6 mph /  47.6 km/h 29.6 mph /  47.6 km/h 53 % 0.0 in /  0 mm 272.0 W/m2 CLR
15:01 12.8 °F /  -10.7 °C 3.2 °F /  -16 °C 1001.9 in /  33924.3 hPa SSE 22.2 mph /  35.7 km/h 22.2 mph /  35.7 km/h 52 % 0.0 in /  0 mm 287.0 W/m2 CLR
15:06 12.8 °F /  -10.7 °C 3.4 °F /  -15.9 °C 1001.9 in /  33924.3 hPa South 24.1 mph /  38.8 km/h 24.1 mph /  38.8 km/h 53 % 0.0 in /  0 mm 213.0 W/m2 CLR
15:11 12.2 °F /  -11 °C 3.2 °F /  -16 °C 1001.9 in /  33924.3 hPa SSW 16.7 mph /  26.9 km/h 16.7 mph /  26.9 km/h 54 % 0.0 in /  0 mm 155.0 W/m2 CLR
15:16 12.2 °F /  -11 °C 3.4 °F /  -15.9 °C 1001.9 in /  33924.3 hPa SSW 16.7 mph /  26.9 km/h 16.7 mph /  26.9 km/h 55 % 0.0 in /  0 mm 165.0 W/m2 CLR
15:21 11.7 °F /  -11.3 °C 3.4 °F /  -15.9 °C 1001.9 in /  33924.3 hPa South 27.8 mph /  44.7 km/h 27.8 mph /  44.7 km/h 57 % 0.0 in /  0 mm 146.0 W/m2 CLR
15:26 11.7 °F /  -11.3 °C 3.9 °F /  -15.6 °C 1001.9 in /  33924.3 hPa SSE 13.0 mph /  20.9 km/h 13.0 mph /  20.9 km/h 59 % 0.0 in /  0 mm 135.0 W/m2 CLR
15:31 11.7 °F /  -11.3 °C 4.2 °F /  -15.4 °C 1001.9 in /  33924.3 hPa SSW 18.5 mph /  29.8 km/h 18.5 mph /  29.8 km/h 60 % 0.0 in /  0 mm 127.0 W/m2 CLR
15:36 11.7 °F /  -11.3 °C 4.2 °F /  -15.4 °C 1001.9 in /  33924.3 hPa South 20.4 mph /  32.8 km/h 20.4 mph /  32.8 km/h 60 % 0.0 in /  0 mm 132.0 W/m2 CLR
15:41 11.7 °F /  -11.3 °C 4.2 °F /  -15.4 °C 1001.6 in /  33914.2 hPa South 18.5 mph /  29.8 km/h 18.5 mph /  29.8 km/h 60 % 0.0 in /  0 mm 137.0 W/m2 CLR
15:46 11.7 °F /  -11.3 °C 4.2 °F /  -15.4 °C 1001.6 in /  33914.2 hPa SSE 18.5 mph /  29.8 km/h 18.5 mph /  29.8 km/h 60 % 0.0 in /  0 mm 111.0 W/m2 CLR
15:51 11.7 °F /  -11.3 °C 4.4 °F /  -15.3 °C 1001.6 in /  33914.2 hPa South 20.4 mph /  32.8 km/h 20.4 mph /  32.8 km/h 61 % 0.0 in /  0 mm 107.0 W/m2 CLR
15:56 11.1 °F /  -11.6 °C 4.3 °F /  -15.4 °C 1001.6 in /  33914.2 hPa SSW 9.7 mph /  15.6 km/h 9.7 mph /  15.6 km/h 63 % 0.0 in /  0 mm 113.0 W/m2 CLR
16:01 11.1 °F /  -11.6 °C 4.6 °F /  -15.2 °C 1001.6 in /  33914.2 hPa SSW 9.7 mph /  15.6 km/h 9.7 mph /  15.6 km/h 64 % 0.0 in /  0 mm 107.0 W/m2 CLR
16:06 11.1 °F /  -11.6 °C 4.8 °F /  -15.1 °C 1001.6 in /  33914.2 hPa SSW 5.6 mph /  9 km/h 5.6 mph /  9 km/h 65 % 0.0 in /  0 mm 105.0 W/m2 CLR
16:11 11.1 °F /  -11.6 °C 5.2 °F /  -14.9 °C 1001.2 in /  33900.6 hPa South 12.9 mph /  20.8 km/h 12.9 mph /  20.8 km/h 67 % 0.0 in /  0 mm 86.0 W/m2 CLR
16:16 11.1 °F /  -11.6 °C 5.4 °F /  -14.8 °C 1000.9 in /  33890.5 hPa South 13.0 mph /  20.9 km/h 13.0 mph /  20.9 km/h 68 % 0.0 in /  0 mm 232.0 W/m2 CLR
16:21 11.1 °F /  -11.6 °C 5.8 °F /  -14.6 °C 1000.9 in /  33890.5 hPa South 11.1 mph /  17.9 km/h 11.1 mph /  17.9 km/h 70 % 0.0 in /  0 mm 255.0 W/m2 CLR
16:26 11.1 °F /  -11.6 °C 6.4 °F /  -14.2 °C 1000.9 in /  33890.5 hPa SSE 3.7 mph /  6 km/h 3.7 mph /  6 km/h 73 % 0.0 in /  0 mm 188.0 W/m2 CLR
16:31 11.1 °F /  -11.6 °C 6.3 °F /  -14.3 °C 1000.6 in /  33880.3 hPa SSE 5.6 mph /  9 km/h 5.6 mph /  9 km/h 72 % 0.0 in /  0 mm 165.0 W/m2 CLR
16:36 11.1 °F /  -11.6 °C 6.3 °F /  -14.3 °C 1000.6 in /  33880.3 hPa SSE 11.1 mph /  17.9 km/h 11.1 mph /  17.9 km/h 72 % 0.0 in /  0 mm 165.0 W/m2 CLR
16:41 11.1 °F /  -11.6 °C 6.1 °F /  -14.4 °C 1000.2 in /  33866.8 hPa South 7.4 mph /  11.9 km/h 7.4 mph /  11.9 km/h 71 % 0.0 in /  0 mm 190.0 W/m2 CLR
16:46 11.1 °F /  -11.6 °C 6.3 °F /  -14.3 °C 1000.2 in /  33866.8 hPa South 8.0 mph /  12.9 km/h 8.0 mph /  12.9 km/h 72 % 0.0 in /  0 mm 207.0 W/m2 CLR
16:51 11.7 °F /  -11.3 °C 6.8 °F /  -14 °C 999.9 in /  33856.6 hPa South 9.3 mph /  15 km/h 9.3 mph /  15 km/h 72 % 0.0 in /  0 mm 211.0 W/m2 CLR
16:56 11.7 °F /  -11.3 °C 6.6 °F /  -14.1 °C 999.5 in /  33843.1 hPa South 5.6 mph /  9 km/h 5.6 mph /  9 km/h 71 % 0.0 in /  0 mm 396.0 W/m2 CLR
17:01 12.2 °F /  -11 °C 6.9 °F /  -13.9 °C 999.5 in /  33843.1 hPa SSE 14.8 mph /  23.8 km/h 14.8 mph /  23.8 km/h 70 % 0.0 in /  0 mm 197.0 W/m2 CLR
17:06 11.7 °F /  -11.3 °C 6.4 °F /  -14.2 °C 999.5 in /  33843.1 hPa SSE 3.7 mph /  6 km/h 3.7 mph /  6 km/h 70 % 0.0 in /  0 mm 323.0 W/m2 CLR
17:11 12.2 °F /  -11 °C 6.9 °F /  -13.9 °C 999.2 in /  33832.9 hPa SSE 8.0 mph /  12.9 km/h 8.0 mph /  12.9 km/h 70 % 0.0 in /  0 mm 290.0 W/m2 CLR
17:16 12.2 °F /  -11 °C 6.7 °F /  -14.1 °C 999.5 in /  33843.1 hPa SSE 13.0 mph /  20.9 km/h 13.0 mph /  20.9 km/h 69 % 0.0 in /  0 mm 248.0 W/m2 CLR
17:19 12.2 °F /  -11 °C 6.7 °F /  -14.1 °C 999.5 in /  33843.1 hPa SSE 7.4 mph /  11.9 km/h 7.4 mph /  11.9 km/h 69 % 0.0 in /  0 mm 315.0 W/m2 CLR
17:21 12.2 °F /  -11 °C 6.7 °F /  -14.1 °C 999.5 in /  33843.1 hPa SSE 7.4 mph /  11.9 km/h 7.4 mph /  11.9 km/h 69 % 0.0 in /  0 mm 315.0 W/m2 CLR
17:26 12.2 °F /  -11 °C 6.7 °F /  -14.1 °C 999.5 in /  33843.1 hPa SSE 7.4 mph /  11.9 km/h 7.4 mph /  11.9 km/h 69 % 0.0 in /  0 mm 315.0 W/m2 CLR
17:37 12.2 °F /  -11 °C 6.7 °F /  -14.1 °C 999.5 in /  33843.1 hPa SE 7.4 mph /  11.9 km/h 7.4 mph /  11.9 km/h 69 % 0.0 in /  0 mm 278.0 W/m2 CLR
17:42 11.7 °F /  -11.3 °C 6.4 °F /  -14.2 °C 999.5 in /  33843.1 hPa South 6.4 mph /  10.3 km/h 6.4 mph /  10.3 km/h 70 % 0.0 in /  0 mm 109.0 W/m2 CLR
17:47 11.7 °F /  -11.3 °C 6.2 °F /  -14.3 °C 999.5 in /  33843.1 hPa South 14.8 mph /  23.8 km/h 14.8 mph /  23.8 km/h 69 % 0.0 in /  0 mm 211.0 W/m2 CLR
17:52 12.2 °F /  -11 °C 5.8 °F /  -14.6 °C 999.5 in /  33843.1 hPa SSW 19.3 mph /  31.1 km/h 19.3 mph /  31.1 km/h 65 % 0.0 in /  0 mm 91.0 W/m2 CLR
17:57 12.2 °F /  -11 °C 5.4 °F /  -14.8 °C 999.2 in /  33832.9 hPa SW 18.5 mph /  29.8 km/h 18.5 mph /  29.8 km/h 63 % 0.0 in /  0 mm 127.0 W/m2 CLR
18:02 12.8 °F /  -10.7 °C 6.1 °F /  -14.4 °C 999.2 in /  33832.9 hPa SW 14.8 mph /  23.8 km/h 14.8 mph /  23.8 km/h 64 % 0.0 in /  0 mm 60.0 W/m2 SCT
18:07 12.2 °F /  -11 °C 5.6 °F /  -14.7 °C 999.2 in /  33832.9 hPa SSW 13.0 mph /  20.9 km/h 13.0 mph /  20.9 km/h 64 % 0.0 in /  0 mm 72.0 W/m2 FEW
18:12 12.2 °F /  -11 °C 5.6 °F /  -14.7 °C 999.2 in /  33832.9 hPa SW 14.8 mph /  23.8 km/h 14.8 mph /  23.8 km/h 64 % 0.0 in /  0 mm 49.0 W/m2 SCT
18:17 12.2 °F /  -11 °C 5.8 °F /  -14.6 °C 999.2 in /  33832.9 hPa SW 22.2 mph /  35.7 km/h 22.2 mph /  35.7 km/h 65 % 0.0 in /  0 mm 35.0 W/m2 BKN
18:22 12.2 °F /  -11 °C 5.8 °F /  -14.6 °C 999.2 in /  33832.9 hPa SW 20.9 mph /  33.6 km/h 20.9 mph /  33.6 km/h 65 % 0.0 in /  0 mm 19.0 W/m2 BKN
18:27 11.7 °F /  -11.3 °C 5.5 °F /  -14.7 °C 998.9 in /  33822.8 hPa SW 17.7 mph /  28.5 km/h 17.7 mph /  28.5 km/h 66 % 0.0 in /  0 mm 14.0 W/m2 BKN
18:32 11.7 °F /  -11.3 °C 5.7 °F /  -14.6 °C 999.2 in /  33832.9 hPa SSW 22.2 mph /  35.7 km/h 22.2 mph /  35.7 km/h 67 % 0.0 in /  0 mm 7.0 W/m2 BKN
18:37 11.7 °F /  -11.3 °C 5.9 °F /  -14.5 °C 998.9 in /  33822.8 hPa SSW 14.8 mph /  23.8 km/h 14.8 mph /  23.8 km/h 68 % 0.0 in /  0 mm 5.0 W/m2 OVC
18:42 11.7 °F /  -11.3 °C 5.9 °F /  -14.5 °C 998.9 in /  33822.8 hPa SSW 5.6 mph /  9 km/h 5.6 mph /  9 km/h 68 % 0.0 in /  0 mm 0.0 W/m2 OVC
18:47 11.1 °F /  -11.6 °C 5.6 °F /  -14.7 °C 998.9 in /  33822.8 hPa SSE 9.3 mph /  15 km/h 9.3 mph /  15 km/h 69 % 0.0 in /  0 mm 0.0 W/m2 OVC
18:52 11.1 °F /  -11.6 °C 5.6 °F /  -14.7 °C 999.2 in /  33832.9 hPa SSW 3.7 mph /  6 km/h 3.7 mph /  6 km/h 69 % 0.0 in /  0 mm 0.0 W/m2 OVC
18:57 11.1 °F /  -11.6 °C 5.6 °F /  -14.7 °C 999.2 in /  33832.9 hPa South 11.1 mph /  17.9 km/h 11.1 mph /  17.9 km/h 69 % 0.0 in /  0 mm 0.0 W/m2 OVC
19:02 10.6 °F /  -11.9 °C 5.3 °F /  -14.8 °C 999.2 in /  33832.9 hPa South 5.6 mph /  9 km/h 5.6 mph /  9 km/h 70 % 0.0 in /  0 mm 0.0 W/m2 CLR
19:07 10.6 °F /  -11.9 °C 5.3 °F /  -14.8 °C 999.2 in /  33832.9 hPa South 13.0 mph /  20.9 km/h 13.0 mph /  20.9 km/h 70 % 0.0 in /  0 mm 0.0 W/m2 CLR
19:12 10.6 °F /  -11.9 °C 5.5 °F /  -14.7 °C 999.2 in /  33832.9 hPa South 6.4 mph /  10.3 km/h 6.4 mph /  10.3 km/h 71 % 0.0 in /  0 mm 0.0 W/m2 CLR
19:17 10.6 °F /  -11.9 °C 5.5 °F /  -14.7 °C 999.2 in /  33832.9 hPa South 6.4 mph /  10.3 km/h 6.4 mph /  10.3 km/h 71 % 0.0 in /  0 mm 0.0 W/m2 CLR
19:22 10.6 °F /  -11.9 °C 5.5 °F /  -14.7 °C 999.2 in /  33832.9 hPa SSW 11.1 mph /  17.9 km/h 11.1 mph /  17.9 km/h 71 % 0.0 in /  0 mm 0.0 W/m2 CLR
19:27 10.6 °F /  -11.9 °C 5.5 °F /  -14.7 °C 999.5 in /  33843.1 hPa South 14.8 mph /  23.8 km/h 14.8 mph /  23.8 km/h 71 % 0.0 in /  0 mm 0.0 W/m2 CLR
19:32 10.6 °F /  -11.9 °C 5.5 °F /  -14.7 °C 999.5 in /  33843.1 hPa SSW 5.6 mph /  9 km/h 5.6 mph /  9 km/h 71 % 0.0 in /  0 mm 0.0 W/m2 CLR
19:37 10.6 °F /  -11.9 °C 5.7 °F /  -14.6 °C 999.5 in /  33843.1 hPa South 7.4 mph /  11.9 km/h 7.4 mph /  11.9 km/h 72 % 0.0 in /  0 mm 0.0 W/m2 CLR
19:42 11.1 °F /  -11.6 °C 6.1 °F /  -14.4 °C 999.5 in /  33843.1 hPa Calm     71 % 0.0 in /  0 mm 0.0 W/m2 CLR
19:47 11.1 °F /  -11.6 °C 6.3 °F /  -14.3 °C 999.5 in /  33843.1 hPa Calm     72 % 0.0 in /  0 mm 0.0 W/m2 CLR
19:52 10.6 °F /  -11.9 °C 5.5 °F /  -14.7 °C 999.5 in /  33843.1 hPa Calm     71 % 0.0 in /  0 mm 0.0 W/m2 CLR
19:57 10.6 °F /  -11.9 °C 5.7 °F /  -14.6 °C 999.5 in /  33843.1 hPa Calm     72 % 0.0 in /  0 mm 0.0 W/m2 CLR
20:02 10.6 °F /  -11.9 °C 5.7 °F /  -14.6 °C 999.5 in /  33843.1 hPa Calm     72 % 0.0 in /  0 mm 0.0 W/m2 CLR
20:07 10.6 °F /  -11.9 °C 5.7 °F /  -14.6 °C 999.5 in /  33843.1 hPa Calm     72 % 0.0 in /  0 mm 0.0 W/m2 CLR
20:12 10.0 °F /  -12.2 °C 5.4 °F /  -14.8 °C 999.5 in /  33843.1 hPa Calm     73 % 0.0 in /  0 mm 0.0 W/m2 CLR
20:17 10.0 °F /  -12.2 °C 5.4 °F /  -14.8 °C 999.9 in /  33856.6 hPa Calm     73 % 0.0 in /  0 mm 0.0 W/m2 CLR
20:22 9.4 °F /  -12.6 °C 4.8 °F /  -15.1 °C 999.5 in /  33843.1 hPa Calm     73 % 0.0 in /  0 mm 0.0 W/m2 CLR
20:27 9.4 °F /  -12.6 °C 5.1 °F /  -14.9 °C 999.5 in /  33843.1 hPa Calm     74 % 0.0 in /  0 mm 0.0 W/m2 CLR
20:32 9.4 °F /  -12.6 °C 5.2 °F /  -14.9 °C 999.5 in /  33843.1 hPa Calm     75 % 0.0 in /  0 mm 0.0 W/m2 CLR
20:37 9.4 °F /  -12.6 °C 5.2 °F /  -14.9 °C 999.2 in /  33832.9 hPa Calm     75 % 0.0 in /  0 mm 0.0 W/m2 CLR
20:42 8.9 °F /  -12.8 °C 4.9 °F /  -15.1 °C 999.2 in /  33832.9 hPa Calm     76 % 0.0 in /  0 mm 0.0 W/m2 CLR
20:47 8.9 °F /  -12.8 °C 4.9 °F /  -15.1 °C 998.9 in /  33822.8 hPa Calm     76 % 0.0 in /  0 mm 0.0 W/m2 CLR
20:52 8.9 °F /  -12.8 °C 5.3 °F /  -14.8 °C 998.9 in /  33822.8 hPa Calm     78 % 0.0 in /  0 mm 0.0 W/m2 CLR
20:57 8.3 °F /  -13.2 °C 4.7 °F /  -15.2 °C 998.9 in /  33822.8 hPa Calm     78 % 0.0 in /  0 mm 0.0 W/m2 CLR
21:02 8.3 °F /  -13.2 °C 4.7 °F /  -15.2 °C 998.5 in /  33809.2 hPa Calm     78 % 0.0 in /  0 mm 0.0 W/m2 CLR
21:07 7.8 °F /  -13.4 °C 4.4 °F /  -15.3 °C 998.5 in /  33809.2 hPa Calm     79 % 0.0 in /  0 mm 0.0 W/m2 CLR
21:12 7.2 °F /  -13.8 °C 3.8 °F /  -15.7 °C 998.5 in /  33809.2 hPa Calm     79 % 0.0 in /  0 mm 0.0 W/m2 CLR
21:17 7.2 °F /  -13.8 °C 4.0 °F /  -15.6 °C 998.5 in /  33809.2 hPa Calm     80 % 0.0 in /  0 mm 0.0 W/m2 CLR
21:22 6.7 °F /  -14.1 °C 3.4 °F /  -15.9 °C 998.5 in /  33809.2 hPa Calm     80 % 0.0 in /  0 mm 0.0 W/m2 CLR
21:27 6.7 °F /  -14.1 °C 3.4 °F /  -15.9 °C 998.5 in /  33809.2 hPa Calm     80 % 0.0 in /  0 mm 0.0 W/m2 CLR
21:32 6.7 °F /  -14.1 °C 3.4 °F /  -15.9 °C 998.9 in /  33822.8 hPa Calm     80 % 0.0 in /  0 mm 0.0 W/m2 CLR
21:37 6.1 °F /  -14.4 °C 2.7 °F /  -16.3 °C 998.9 in /  33822.8 hPa Calm     79 % 0.0 in /  0 mm 0.0 W/m2 CLR
21:42 6.1 °F /  -14.4 °C 2.7 °F /  -16.3 °C 998.5 in /  33809.2 hPa Calm     79 % 0.0 in /  0 mm 0.0 W/m2 CLR
21:47 6.1 °F /  -14.4 °C 2.9 °F /  -16.2 °C 998.5 in /  33809.2 hPa Calm     80 % 0.0 in /  0 mm 0.0 W/m2 CLR
21:52 5.6 °F /  -14.7 °C 2.6 °F /  -16.3 °C 998.5 in /  33809.2 hPa Calm     81 % 0.0 in /  0 mm 0.0 W/m2 CLR
21:57 6.1 °F /  -14.4 °C 3.3 °F /  -15.9 °C 998.5 in /  33809.2 hPa Calm     82 % 0.0 in /  0 mm 0.0 W/m2 CLR
22:02 6.1 °F /  -14.4 °C 3.4 °F /  -15.9 °C 998.5 in /  33809.2 hPa Calm     83 % 0.0 in /  0 mm 0.0 W/m2 CLR
22:07 5.6 °F /  -14.7 °C 2.9 °F /  -16.2 °C 998.9 in /  33822.8 hPa Calm     83 % 0.0 in /  0 mm 0.0 W/m2 CLR
22:12 5.6 °F /  -14.7 °C 2.9 °F /  -16.2 °C 998.5 in /  33809.2 hPa Calm     83 % 0.0 in /  0 mm 0.0 W/m2 CLR
22:17 5.6 °F /  -14.7 °C 2.9 °F /  -16.2 °C 998.5 in /  33809.2 hPa Calm     83 % 0.0 in /  0 mm 0.0 W/m2 CLR
22:23 5.6 °F /  -14.7 °C 2.9 °F /  -16.2 °C 998.5 in /  33809.2 hPa Calm     83 % 0.0 in /  0 mm 0.0 W/m2 CLR
22:28 5.6 °F /  -14.7 °C 2.9 °F /  -16.2 °C 998.2 in /  33799.1 hPa Calm     83 % 0.0 in /  0 mm 0.0 W/m2 CLR
22:33 5.6 °F /  -14.7 °C 3.1 °F /  -16.1 °C 998.2 in /  33799.1 hPa Calm     84 % 0.0 in /  0 mm 0.0 W/m2 CLR
22:38 5.0 °F /  -15 °C 2.7 °F /  -16.3 °C 998.2 in /  33799.1 hPa Calm     85 % 0.0 in /  0 mm 0.0 W/m2 CLR
22:43 5.0 °F /  -15 °C 2.7 °F /  -16.3 °C 998.2 in /  33799.1 hPa Calm     85 % 0.0 in /  0 mm 0.0 W/m2 CLR
22:48 5.0 °F /  -15 °C 2.7 °F /  -16.3 °C 998.2 in /  33799.1 hPa Calm     85 % 0.0 in /  0 mm 0.0 W/m2 CLR
22:53 5.6 °F /  -14.7 °C 3.4 °F /  -15.9 °C 998.2 in /  33799.1 hPa Calm     86 % 0.0 in /  0 mm 0.0 W/m2 CLR
22:58 5.6 °F /  -14.7 °C 3.4 °F /  -15.9 °C 998.2 in /  33799.1 hPa Calm     86 % 0.0 in /  0 mm 0.0 W/m2 CLR
23:03 5.6 °F /  -14.7 °C 3.4 °F /  -15.9 °C 998.2 in /  33799.1 hPa Calm     86 % 0.0 in /  0 mm 0.0 W/m2 CLR
23:08 6.1 °F /  -14.4 °C 3.8 °F /  -15.7 °C 998.5 in /  33809.2 hPa Calm     85 % 0.0 in /  0 mm 0.0 W/m2 CLR
23:13 6.1 °F /  -14.4 °C 3.8 °F /  -15.7 °C 998.2 in /  33799.1 hPa Calm     85 % 0.0 in /  0 mm 0.0 W/m2 CLR
23:18 6.1 °F /  -14.4 °C 3.9 °F /  -15.6 °C 998.2 in /  33799.1 hPa Calm     86 % 0.0 in /  0 mm 0.0 W/m2 CLR
23:23 6.1 °F /  -14.4 °C 3.9 °F /  -15.6 °C 998.5 in /  33809.2 hPa Calm     86 % 0.0 in /  0 mm 0.0 W/m2 CLR
23:28 6.7 °F /  -14.1 °C 4.3 °F /  -15.4 °C 998.5 in /  33809.2 hPa Calm     85 % 0.0 in /  0 mm 0.0 W/m2 CLR
23:33 6.7 °F /  -14.1 °C 4.3 °F /  -15.4 °C 998.9 in /  33822.8 hPa Calm     85 % 0.0 in /  0 mm 0.0 W/m2 CLR
23:38 6.7 °F /  -14.1 °C 4.3 °F /  -15.4 °C 998.9 in /  33822.8 hPa Calm     85 % 0.0 in /  0 mm 0.0 W/m2 CLR
23:43 6.7 °F /  -14.1 °C 4.3 °F /  -15.4 °C 999.2 in /  33832.9 hPa Calm     85 % 0.3 in /  7.62 mm 0.0 W/m2 RA
23:48 6.7 °F /  -14.1 °C 4.3 °F /  -15.4 °C 999.2 in /  33832.9 hPa Calm     85 % 0.5 in /  12.7 mm 0.0 W/m2 RA
23:53 7.2 °F /  -13.8 °C 4.9 °F /  -15.1 °C 999.2 in /  33832.9 hPa Calm     85 % 0.8 in /  20.32 mm 0.0 W/m2 RA
23:58 6.7 °F /  -14.1 °C 4.5 °F /  -15.3 °C 999.2 in /  33832.9 hPa Calm     86 % 1.3 in /  33.02 mm 0.0 W/m2 RA
Lo Temps de Massalio
Compliments of Weather Underground - 1.25 mb